createdAt,value
2018-05-12T00:00:35.099Z,1008.33
2018-05-12T00:01:35.089Z,1008.33
2018-05-12T00:02:35.077Z,1008.29
2018-05-12T00:03:35.063Z,1008.28
2018-05-12T00:04:35.053Z,1008.26
2018-05-12T00:05:35.044Z,1008.24
2018-05-12T00:06:35.032Z,1008.26
2018-05-12T00:07:35.025Z,1008.26
2018-05-12T00:08:35.216Z,1008.25
2018-05-12T00:09:34.996Z,1008.27
2018-05-12T00:10:34.982Z,1008.24
2018-05-12T00:11:34.972Z,1008.24
2018-05-12T00:12:34.961Z,1008.25
2018-05-12T00:13:34.976Z,1008.29
2018-05-12T00:14:34.938Z,1008.24
2018-05-12T00:15:34.928Z,1008.28
2018-05-12T00:16:34.914Z,1008.29
2018-05-12T00:17:34.902Z,1008.26
2018-05-12T00:18:34.898Z,1008.24
2018-05-12T00:19:34.883Z,1008.25
2018-05-12T00:20:34.868Z,1008.25
2018-05-12T00:21:34.855Z,1008.27
2018-05-12T00:22:34.846Z,1008.25
2018-05-12T00:23:34.837Z,1008.27
2018-05-12T00:24:34.825Z,1008.29
2018-05-12T00:25:34.810Z,1008.28
2018-05-12T00:26:34.803Z,1008.24
2018-05-12T00:27:34.787Z,1008.24
2018-05-12T00:28:34.776Z,1008.26
2018-05-12T00:29:34.766Z,1008.25
2018-05-12T00:30:34.753Z,1008.25
2018-05-12T00:31:34.745Z,1008.21
2018-05-12T00:32:34.730Z,1008.17
2018-05-12T00:33:34.716Z,1008.16
2018-05-12T00:34:34.705Z,1008.17
2018-05-12T00:35:34.696Z,1008.2
2018-05-12T00:36:34.682Z,1008.21
2018-05-12T00:37:34.675Z,1008.23
2018-05-12T00:38:34.657Z,1008.23
2018-05-12T00:39:34.647Z,1008.2
2018-05-12T00:40:34.636Z,1008.2
2018-05-12T00:41:34.628Z,1008.22
2018-05-12T00:42:34.614Z,1008.25
2018-05-12T00:43:34.601Z,1008.2
2018-05-12T00:44:34.591Z,1008.21
2018-05-12T00:45:34.578Z,1008.19
2018-05-12T00:46:34.572Z,1008.2
2018-05-12T00:47:34.558Z,1008.21
2018-05-12T00:48:34.542Z,1008.15
2018-05-12T00:49:34.531Z,1008.15
2018-05-12T00:50:34.521Z,1008.18
2018-05-12T00:51:34.509Z,1008.18
2018-05-12T00:52:34.502Z,1008.1
2018-05-12T00:53:34.485Z,1008.09
2018-05-12T00:54:34.472Z,1008.06
2018-05-12T00:55:34.463Z,1008.07
2018-05-12T00:56:34.450Z,1008.08
2018-05-12T00:57:34.442Z,1008.03
2018-05-12T00:58:34.427Z,1008.02
2018-05-12T00:59:34.425Z,1008.04
2018-05-12T01:00:34.405Z,1008.06
2018-05-12T01:01:34.392Z,1008.05
2018-05-12T01:02:34.381Z,1008.02
2018-05-12T01:03:34.368Z,1008.01
2018-05-12T01:04:34.358Z,1008.03
2018-05-12T01:05:34.345Z,1007.98
2018-05-12T01:06:34.339Z,1008.02
2018-05-12T01:07:34.328Z,1008.02
2018-05-12T01:08:34.312Z,1008.01
2018-05-12T01:09:34.302Z,1007.99
2018-05-12T01:10:34.287Z,1008
2018-05-12T01:11:34.276Z,1008.03
2018-05-12T01:12:34.273Z,1008.04
2018-05-12T01:13:34.310Z,1008.04
2018-05-12T01:14:34.240Z,1008.01
2018-05-12T01:15:34.230Z,1008.01
2018-05-12T01:16:34.218Z,1008.03
2018-05-12T01:17:34.207Z,1008
2018-05-12T01:18:34.195Z,1008
2018-05-12T01:19:34.183Z,1007.99
2018-05-12T01:20:34.171Z,1007.97
2018-05-12T01:21:34.158Z,1007.96
2018-05-12T01:22:34.148Z,1007.96
2018-05-12T01:23:34.143Z,1007.96
2018-05-12T01:24:34.125Z,1007.94
2018-05-12T01:25:34.113Z,1007.94
2018-05-12T01:26:34.102Z,1007.93
2018-05-12T01:27:34.091Z,1007.95
2018-05-12T01:28:34.082Z,1007.92
2018-05-12T01:29:34.071Z,1007.91
2018-05-12T01:30:34.058Z,1007.95
2018-05-12T01:31:34.043Z,1007.94
2018-05-12T01:32:34.032Z,1007.95
2018-05-12T01:33:34.020Z,1007.97
2018-05-12T01:34:34.008Z,1007.97
2018-05-12T01:35:33.996Z,1007.95
2018-05-12T01:36:33.987Z,1007.95
2018-05-12T01:37:33.974Z,1007.97
2018-05-12T01:38:33.962Z,1007.95
2018-05-12T01:39:33.954Z,1007.94
2018-05-12T01:40:33.972Z,1007.94
2018-05-12T01:41:33.927Z,1007.93
2018-05-12T01:42:33.915Z,1007.95
2018-05-12T01:43:33.906Z,1007.97
2018-05-12T01:44:33.891Z,1008
2018-05-12T01:45:33.879Z,1007.96
2018-05-12T01:46:33.867Z,1007.94
2018-05-12T01:47:33.856Z,1007.95
2018-05-12T01:48:33.845Z,1007.94
2018-05-12T01:49:33.832Z,1007.97
2018-05-12T01:50:33.822Z,1007.98
2018-05-12T01:51:33.810Z,1007.98
2018-05-12T01:52:33.797Z,1007.97
2018-05-12T01:53:33.788Z,1007.98
2018-05-12T01:54:33.776Z,1007.99
2018-05-12T01:55:33.764Z,1007.98
2018-05-12T01:56:33.751Z,1007.93
2018-05-12T01:57:33.741Z,1007.92
2018-05-12T01:58:33.733Z,1007.92
2018-05-12T01:59:33.713Z,1007.93
2018-05-12T02:00:33.708Z,1007.91
2018-05-12T02:01:33.692Z,1007.91
2018-05-12T02:02:33.681Z,1007.91
2018-05-12T02:03:33.678Z,1007.95
2018-05-12T02:04:33.683Z,1007.95
2018-05-12T02:05:33.648Z,1007.95
2018-05-12T02:06:33.632Z,1007.94
2018-05-12T02:07:33.617Z,1007.93
2018-05-12T02:08:33.810Z,1007.91
2018-05-12T02:09:33.594Z,1007.9
2018-05-12T02:10:33.587Z,1007.92
2018-05-12T02:11:33.576Z,1007.9
2018-05-12T02:12:33.558Z,1007.89
2018-05-12T02:13:33.549Z,1007.89
2018-05-12T02:14:33.535Z,1007.86
2018-05-12T02:15:33.523Z,1007.9
2018-05-12T02:16:33.513Z,1007.89
2018-05-12T02:17:33.500Z,1007.9
2018-05-12T02:18:33.487Z,1007.86
2018-05-12T02:19:33.486Z,1007.9
2018-05-12T02:20:33.462Z,1007.89
2018-05-12T02:21:33.453Z,1007.9
2018-05-12T02:22:33.439Z,1007.93
2018-05-12T02:23:33.428Z,1007.93
2018-05-12T02:24:33.415Z,1007.93
2018-05-12T02:25:33.404Z,1007.93
2018-05-12T02:26:33.391Z,1007.93
2018-05-12T02:27:33.381Z,1007.9
2018-05-12T02:28:33.367Z,1007.88
2018-05-12T02:29:33.355Z,1007.88
2018-05-12T02:30:33.344Z,1007.89
2018-05-12T02:31:33.330Z,1007.84
2018-05-12T02:32:33.321Z,1007.85
2018-05-12T02:33:33.307Z,1007.82
2018-05-12T02:34:33.303Z,1007.85
2018-05-12T02:35:33.284Z,1007.84
2018-05-12T02:36:33.270Z,1007.83
2018-05-12T02:37:33.258Z,1007.82
2018-05-12T02:38:33.246Z,1007.84
2018-05-12T02:39:33.237Z,1007.82
2018-05-12T02:40:33.221Z,1007.8
2018-05-12T02:41:33.209Z,1007.82
2018-05-12T02:42:33.197Z,1007.76
2018-05-12T02:43:33.184Z,1007.78
2018-05-12T02:44:33.172Z,1007.78
2018-05-12T02:45:33.160Z,1007.77
2018-05-12T02:46:33.148Z,1007.73
2018-05-12T02:47:33.134Z,1007.7
2018-05-12T02:48:33.123Z,1007.68
2018-05-12T02:49:33.110Z,1007.68
2018-05-12T02:50:33.097Z,1007.66
2018-05-12T02:51:33.084Z,1007.68
2018-05-12T02:52:33.072Z,1007.68
2018-05-12T02:53:33.066Z,1007.72
2018-05-12T02:54:33.047Z,1007.69
2018-05-12T02:55:33.035Z,1007.71
2018-05-12T02:56:33.020Z,1007.69
2018-05-12T02:57:33.016Z,1007.71
2018-05-12T02:58:33.003Z,1007.67
2018-05-12T02:59:32.988Z,1007.66
2018-05-12T03:00:32.970Z,1007.71
2018-05-12T03:01:32.964Z,1007.68
2018-05-12T03:02:32.943Z,1007.72
2018-05-12T03:03:32.932Z,1007.69
2018-05-12T03:04:32.918Z,1007.69
2018-05-12T03:05:32.905Z,1007.67
2018-05-12T03:06:32.894Z,1007.67
2018-05-12T03:07:32.887Z,1007.65
2018-05-12T03:08:32.870Z,1007.67
2018-05-12T03:09:32.852Z,1007.65
2018-05-12T03:10:32.841Z,1007.62
2018-05-12T03:11:32.827Z,1007.62
2018-05-12T03:12:32.814Z,1007.63
2018-05-12T03:13:32.799Z,1007.62
2018-05-12T03:14:32.788Z,1007.61
2018-05-12T03:15:32.773Z,1007.59
2018-05-12T03:16:32.762Z,1007.62
2018-05-12T03:17:32.746Z,1007.61
2018-05-12T03:18:32.734Z,1007.65
2018-05-12T03:19:32.720Z,1007.66
2018-05-12T03:20:32.705Z,1007.66
2018-05-12T03:21:32.692Z,1007.65
2018-05-12T03:22:32.683Z,1007.69
2018-05-12T03:23:32.666Z,1007.7
2018-05-12T03:24:32.657Z,1007.69
2018-05-12T03:25:32.639Z,1007.65
2018-05-12T03:26:32.627Z,1007.68
2018-05-12T03:27:32.614Z,1007.67
2018-05-12T03:28:32.598Z,1007.67
2018-05-12T03:29:32.588Z,1007.67
2018-05-12T03:30:32.572Z,1007.68
2018-05-12T03:31:32.560Z,1007.69
2018-05-12T03:32:32.547Z,1007.67
2018-05-12T03:33:32.534Z,1007.7
2018-05-12T03:34:32.520Z,1007.68
2018-05-12T03:35:32.510Z,1007.67
2018-05-12T03:36:32.491Z,1007.69
2018-05-12T03:37:32.478Z,1007.68
2018-05-12T03:38:32.467Z,1007.65
2018-05-12T03:39:32.450Z,1007.67
2018-05-12T03:40:32.438Z,1007.65
2018-05-12T03:41:32.428Z,1007.72
2018-05-12T03:42:32.411Z,1007.7
2018-05-12T03:43:32.396Z,1007.71
2018-05-12T03:44:32.382Z,1007.71
2018-05-12T03:45:32.370Z,1007.71
2018-05-12T03:46:32.355Z,1007.71
2018-05-12T03:47:32.342Z,1007.69
2018-05-12T03:48:32.335Z,1007.68
2018-05-12T03:49:32.313Z,1007.7
2018-05-12T03:50:32.301Z,1007.66
2018-05-12T03:51:32.287Z,1007.68
2018-05-12T03:52:32.277Z,1007.73
2018-05-12T03:53:32.266Z,1007.73
2018-05-12T03:54:32.245Z,1007.73
2018-05-12T03:55:32.248Z,1007.72
2018-05-12T03:56:32.224Z,1007.72
2018-05-12T03:57:32.209Z,1007.76
2018-05-12T03:58:32.191Z,1007.75
2018-05-12T03:59:32.177Z,1007.82
2018-05-12T04:00:32.167Z,1007.79
2018-05-12T04:01:32.150Z,1007.81
2018-05-12T04:02:32.138Z,1007.78
2018-05-12T04:03:32.123Z,1007.79
2018-05-12T04:04:32.109Z,1007.79
2018-05-12T04:05:32.122Z,1007.79
2018-05-12T04:06:32.082Z,1007.8
2018-05-12T04:07:32.073Z,1007.81
2018-05-12T04:08:32.271Z,1007.79
2018-05-12T04:09:32.042Z,1007.82
2018-05-12T04:10:32.028Z,1007.84
2018-05-12T04:11:32.014Z,1007.87
2018-05-12T04:12:31.999Z,1007.87
2018-05-12T04:13:31.986Z,1007.89
2018-05-12T04:14:31.971Z,1007.86
2018-05-12T04:15:31.960Z,1007.88
2018-05-12T04:16:31.945Z,1007.87
2018-05-12T04:17:31.937Z,1007.86
2018-05-12T04:18:31.919Z,1007.86
2018-05-12T04:19:31.904Z,1007.9
2018-05-12T04:20:31.890Z,1007.84
2018-05-12T04:21:31.875Z,1007.88
2018-05-12T04:22:31.860Z,1007.83
2018-05-12T04:23:31.849Z,1007.85
2018-05-12T04:24:31.833Z,1007.83
2018-05-12T04:25:31.820Z,1007.83
2018-05-12T04:26:31.804Z,1007.83
2018-05-12T04:27:31.792Z,1007.85
2018-05-12T04:28:31.778Z,1007.84
2018-05-12T04:29:31.766Z,1007.84
2018-05-12T04:30:31.751Z,1007.82
2018-05-12T04:31:31.738Z,1007.85
2018-05-12T04:32:31.722Z,1007.87
2018-05-12T04:33:31.708Z,1007.85
2018-05-12T04:34:31.695Z,1007.82
2018-05-12T04:35:31.682Z,1007.81
2018-05-12T04:36:31.668Z,1007.82
2018-05-12T04:37:31.655Z,1007.85
2018-05-12T04:38:31.644Z,1007.84
2018-05-12T04:39:31.627Z,1007.84
2018-05-12T04:40:31.613Z,1007.82
2018-05-12T04:41:31.600Z,1007.8
2018-05-12T04:42:31.590Z,1007.78
2018-05-12T04:43:31.572Z,1007.86
2018-05-12T04:44:31.563Z,1007.83
2018-05-12T04:45:31.546Z,1007.82
2018-05-12T04:46:31.530Z,1007.79
2018-05-12T04:47:31.515Z,1007.79
2018-05-12T04:48:31.502Z,1007.76
2018-05-12T04:49:31.494Z,1007.76
2018-05-12T04:50:31.476Z,1007.78
2018-05-12T04:51:31.462Z,1007.77
2018-05-12T04:52:31.447Z,1007.78
2018-05-12T04:53:31.434Z,1007.75
2018-05-12T04:54:31.420Z,1007.74
2018-05-12T04:55:31.405Z,1007.73
2018-05-12T04:56:31.399Z,1007.76
2018-05-12T04:57:31.381Z,1007.75
2018-05-12T04:58:31.369Z,1007.75
2018-05-12T04:59:31.352Z,1007.77
2018-05-12T05:00:31.338Z,1007.76
2018-05-12T05:01:31.326Z,1007.78
2018-05-12T05:02:31.310Z,1007.75
2018-05-12T05:03:31.296Z,1007.73
2018-05-12T05:04:31.284Z,1007.75
2018-05-12T05:05:31.272Z,1007.8
2018-05-12T05:06:31.258Z,1007.8
2018-05-12T05:07:31.243Z,1007.77
2018-05-12T05:08:31.230Z,1007.8
2018-05-12T05:09:31.218Z,1007.79
2018-05-12T05:10:31.204Z,1007.78
2018-05-12T05:11:31.191Z,1007.8
2018-05-12T05:12:31.178Z,1007.78
2018-05-12T05:13:31.165Z,1007.77
2018-05-12T05:14:31.151Z,1007.77
2018-05-12T05:15:31.137Z,1007.8
2018-05-12T05:16:31.126Z,1007.79
2018-05-12T05:17:31.114Z,1007.78
2018-05-12T05:18:31.096Z,1007.79
2018-05-12T05:19:31.097Z,1007.79
2018-05-12T05:20:31.071Z,1007.78
2018-05-12T05:21:31.056Z,1007.77
2018-05-12T05:22:31.045Z,1007.81
2018-05-12T05:23:31.031Z,1007.83
2018-05-12T05:24:31.019Z,1007.81
2018-05-12T05:25:31.004Z,1007.84
2018-05-12T05:26:30.991Z,1007.84
2018-05-12T05:27:30.984Z,1007.83
2018-05-12T05:28:30.968Z,1007.79
2018-05-12T05:29:30.952Z,1007.81
2018-05-12T05:30:30.938Z,1007.85
2018-05-12T05:31:30.925Z,1007.83
2018-05-12T05:32:30.912Z,1007.84
2018-05-12T05:33:30.899Z,1007.87
2018-05-12T05:34:30.886Z,1007.88
2018-05-12T05:35:30.873Z,1007.88
2018-05-12T05:36:30.861Z,1007.91
2018-05-12T05:37:30.849Z,1007.88
2018-05-12T05:38:30.839Z,1007.9
2018-05-12T05:39:30.822Z,1007.86
2018-05-12T05:40:30.810Z,1007.91
2018-05-12T05:41:30.906Z,1007.91
2018-05-12T05:42:30.786Z,1007.92
2018-05-12T05:43:30.799Z,1007.9
2018-05-12T05:44:30.758Z,1007.94
2018-05-12T05:45:30.751Z,1007.96
2018-05-12T05:46:30.733Z,1007.97
2018-05-12T05:47:30.727Z,1007.97
2018-05-12T05:48:30.708Z,1007.95
2018-05-12T05:49:30.695Z,1007.96
2018-05-12T05:50:30.682Z,1007.94
2018-05-12T05:51:30.674Z,1007.94
2018-05-12T05:52:30.658Z,1007.92
2018-05-12T05:53:30.643Z,1007.9
2018-05-12T05:54:30.634Z,1007.94
2018-05-12T05:55:30.618Z,1007.93
2018-05-12T05:56:30.608Z,1007.98
2018-05-12T05:57:30.594Z,1007.95
2018-05-12T05:58:30.612Z,1007.92
2018-05-12T05:59:30.567Z,1007.94
2018-05-12T06:00:30.554Z,1007.95
2018-05-12T06:01:30.542Z,1007.97
2018-05-12T06:02:30.531Z,1007.97
2018-05-12T06:03:30.520Z,1007.98
2018-05-12T06:04:30.505Z,1007.98
2018-05-12T06:05:30.494Z,1007.98
2018-05-12T06:06:30.480Z,1007.93
2018-05-12T06:07:30.468Z,1007.93
2018-05-12T06:08:30.657Z,1007.93
2018-05-12T06:09:30.446Z,1007.92
2018-05-12T06:10:30.435Z,1007.92
2018-05-12T06:11:30.422Z,1007.93
2018-05-12T06:12:30.409Z,1007.93
2018-05-12T06:13:30.400Z,1007.91
2018-05-12T06:14:30.382Z,1007.93
2018-05-12T06:15:30.371Z,1007.92
2018-05-12T06:16:30.359Z,1007.92
2018-05-12T06:17:30.346Z,1007.96
2018-05-12T06:18:30.334Z,1007.95
2018-05-12T06:19:30.321Z,1007.94
2018-05-12T06:20:30.312Z,1007.98
2018-05-12T06:21:30.298Z,1007.97
2018-05-12T06:22:30.286Z,1008.01
2018-05-12T06:23:30.273Z,1008
2018-05-12T06:24:30.263Z,1007.98
2018-05-12T06:25:30.250Z,1008.02
2018-05-12T06:26:30.241Z,1007.99
2018-05-12T06:27:30.227Z,1008.03
2018-05-12T06:28:30.215Z,1008.02
2018-05-12T06:29:30.203Z,1008.04
2018-05-12T06:30:30.192Z,1008.02
2018-05-12T06:31:30.179Z,1008
2018-05-12T06:32:30.169Z,1008
2018-05-12T06:33:30.188Z,1007.99
2018-05-12T06:34:30.152Z,1008.02
2018-05-12T06:35:30.132Z,1007.99
2018-05-12T06:36:30.121Z,1008.01
2018-05-12T06:37:30.112Z,1007.97
2018-05-12T06:38:30.100Z,1007.97
2018-05-12T06:39:30.087Z,1007.95
2018-05-12T06:40:30.075Z,1007.97
2018-05-12T06:41:30.067Z,1008.01
2018-05-12T06:42:30.054Z,1008
2018-05-12T06:43:30.042Z,1008.03
2018-05-12T06:44:30.031Z,1007.99
2018-05-12T06:45:30.019Z,1008
2018-05-12T06:46:30.012Z,1007.98
2018-05-12T06:47:29.999Z,1007.98
2018-05-12T06:48:29.987Z,1007.99
2018-05-12T06:49:29.972Z,1007.95
2018-05-12T06:50:29.965Z,1007.98
2018-05-12T06:51:29.952Z,1007.95
2018-05-12T06:52:29.940Z,1007.98
2018-05-12T06:53:29.929Z,1007.98
2018-05-12T06:54:29.916Z,1007.95
2018-05-12T06:55:29.907Z,1007.96
2018-05-12T06:56:29.896Z,1007.99
2018-05-12T06:57:29.885Z,1007.97
2018-05-12T06:58:29.873Z,1008.03
2018-05-12T06:59:29.862Z,1008.04
2018-05-12T07:00:29.852Z,1008
2018-05-12T07:01:29.875Z,1008.02
2018-05-12T07:02:29.829Z,1007.96
2018-05-12T07:03:29.818Z,1007.96
2018-05-12T07:04:29.836Z,1008.01
2018-05-12T07:05:29.799Z,1007.96
2018-05-12T07:06:29.788Z,1007.94
2018-05-12T07:07:29.774Z,1007.98
2018-05-12T07:08:29.792Z,1007.97
2018-05-12T07:09:29.754Z,1007.97
2018-05-12T07:10:29.744Z,1008
2018-05-12T07:11:29.739Z,1007.98
2018-05-12T07:12:29.723Z,1007.99
2018-05-12T07:13:29.712Z,1007.99
2018-05-12T07:14:29.700Z,1007.97
2018-05-12T07:15:29.693Z,1007.98
2018-05-12T07:16:29.680Z,1007.95
2018-05-12T07:17:29.673Z,1008.01
2018-05-12T07:18:29.662Z,1008.02
2018-05-12T07:19:29.656Z,1008
2018-05-12T07:20:29.638Z,1008.06
2018-05-12T07:21:29.630Z,1008.01
2018-05-12T07:22:29.615Z,1008.01
2018-05-12T07:23:29.608Z,1008.01
2018-05-12T07:24:29.595Z,1008.08
2018-05-12T07:25:29.588Z,1008.25
2018-05-12T07:26:29.574Z,1008.29
2018-05-12T07:27:29.585Z,1008.27
2018-05-12T07:28:29.558Z,1008.3
2018-05-12T07:29:29.554Z,1008.32
2018-05-12T07:30:29.536Z,1008.28
2018-05-12T07:31:29.532Z,1008.36
2018-05-12T07:32:29.525Z,1008.3
2018-05-12T07:33:29.542Z,1008.35
2018-05-12T07:34:29.510Z,1008.36
2018-05-12T07:35:29.500Z,1008.35
2018-05-12T07:36:29.488Z,1008.34
2018-05-12T07:37:29.485Z,1008.36
2018-05-12T07:38:29.476Z,1008.35
2018-05-12T07:39:29.471Z,1008.38
2018-05-12T07:40:29.465Z,1008.39
2018-05-12T07:41:29.470Z,1008.37
2018-05-12T07:42:29.454Z,1008.39
2018-05-12T07:43:29.471Z,1008.35
2018-05-12T07:44:29.446Z,1008.34
2018-05-12T07:45:29.546Z,1008.34
2018-05-12T07:46:29.436Z,1008.37
2018-05-12T07:47:29.446Z,1008.37
2018-05-12T07:48:29.427Z,1008.37
2018-05-12T07:49:29.447Z,1008.35
2018-05-12T07:50:29.425Z,1008.38
2018-05-12T07:51:29.445Z,1008.37
2018-05-12T07:52:29.414Z,1008.42
2018-05-12T07:53:29.413Z,1008.43
2018-05-12T07:54:29.611Z,1008.46
2018-05-12T07:55:29.408Z,1008.42
2018-05-12T07:56:29.406Z,1008.43
2018-05-12T07:57:29.406Z,1008.4
2018-05-12T07:58:29.400Z,1008.4
2018-05-12T07:59:29.408Z,1008.37
2018-05-12T08:00:29.397Z,1008.38
2018-05-12T08:01:29.402Z,1008.39
2018-05-12T08:02:29.403Z,1008.38
2018-05-12T08:03:29.406Z,1008.37
2018-05-12T08:04:29.392Z,1008.44
2018-05-12T08:05:29.392Z,1008.41
2018-05-12T08:06:29.389Z,1008.42
2018-05-12T08:07:29.389Z,1008.46
2018-05-12T08:08:29.591Z,1008.46
2018-05-12T08:09:29.388Z,1008.43
2018-05-12T08:10:29.387Z,1008.46
2018-05-12T08:11:29.386Z,1008.44
2018-05-12T08:12:29.389Z,1008.44
2018-05-12T08:13:29.386Z,1008.38
2018-05-12T08:14:29.396Z,1008.4
2018-05-12T08:15:29.390Z,1008.42
2018-05-12T08:16:29.387Z,1008.37
2018-05-12T08:17:29.389Z,1008.41
2018-05-12T08:18:29.389Z,1008.41
2018-05-12T08:19:29.393Z,1008.37
2018-05-12T08:20:29.392Z,1008.33
2018-05-12T08:21:29.393Z,1008.25
2018-05-12T08:22:29.400Z,1008.14
2018-05-12T08:23:29.395Z,1008.09
2018-05-12T08:24:29.394Z,1008.1
2018-05-12T08:25:29.396Z,1008.16
2018-05-12T08:26:29.399Z,1008.04
2018-05-12T08:27:29.396Z,1008.01
2018-05-12T08:28:29.408Z,1008.07
2018-05-12T08:29:29.398Z,1008.07
2018-05-12T08:30:29.398Z,1008
2018-05-12T08:31:29.483Z,1008.07
2018-05-12T08:32:29.397Z,1008.02
2018-05-12T08:33:29.395Z,1007.95
2018-05-12T08:34:29.396Z,1007.87
2018-05-12T08:35:29.400Z,1007.87
2018-05-12T08:36:29.393Z,1007.88
2018-05-12T08:37:29.393Z,1007.89
2018-05-12T08:38:29.390Z,1007.95
2018-05-12T08:39:29.387Z,1007.93
2018-05-12T08:40:29.466Z,1007.86
2018-05-12T08:41:29.390Z,1007.82
2018-05-12T08:42:29.395Z,1007.75
2018-05-12T08:43:29.385Z,1007.81
2018-05-12T08:44:29.378Z,1007.77
2018-05-12T08:45:29.378Z,1007.8
2018-05-12T08:46:29.375Z,1007.77
2018-05-12T08:47:29.373Z,1007.77
2018-05-12T08:48:29.374Z,1007.81
2018-05-12T08:49:29.378Z,1007.79
2018-05-12T08:50:29.363Z,1007.8
2018-05-12T08:51:29.376Z,1007.82
2018-05-12T08:52:29.356Z,1007.78
2018-05-12T08:53:29.372Z,1007.82
2018-05-12T08:54:29.353Z,1007.79
2018-05-12T08:55:29.346Z,1007.75
2018-05-12T08:56:29.341Z,1007.75
2018-05-12T08:57:29.339Z,1007.71
2018-05-12T08:58:29.341Z,1007.66
2018-05-12T08:59:29.336Z,1007.67
2018-05-12T09:00:29.324Z,1007.64
2018-05-12T09:01:29.336Z,1007.7
2018-05-12T09:02:29.326Z,1007.67
2018-05-12T09:03:29.313Z,1007.66
2018-05-12T09:04:29.310Z,1007.62
2018-05-12T09:05:29.303Z,1007.64
2018-05-12T09:06:29.310Z,1007.63
2018-05-12T09:07:29.295Z,1007.62
2018-05-12T09:08:29.290Z,1007.59
2018-05-12T09:09:29.288Z,1007.6
2018-05-12T09:10:29.282Z,1007.61
2018-05-12T09:11:29.280Z,1007.59
2018-05-12T09:12:29.271Z,1007.52
2018-05-12T09:13:29.267Z,1007.62
2018-05-12T09:14:29.260Z,1007.57
2018-05-12T09:15:29.257Z,1007.56
2018-05-12T09:16:29.249Z,1007.59
2018-05-12T09:17:29.262Z,1007.6
2018-05-12T09:18:29.249Z,1007.59
2018-05-12T09:19:29.244Z,1007.57
2018-05-12T09:20:29.231Z,1007.59
2018-05-12T09:21:29.223Z,1007.57
2018-05-12T09:22:29.224Z,1007.56
2018-05-12T09:23:29.212Z,1007.6
2018-05-12T09:24:29.208Z,1007.54
2018-05-12T09:25:29.304Z,1007.53
2018-05-12T09:26:29.194Z,1007.53
2018-05-12T09:27:29.190Z,1007.56
2018-05-12T09:28:29.183Z,1007.49
2018-05-12T09:29:29.178Z,1007.51
2018-05-12T09:30:29.180Z,1007.5
2018-05-12T09:31:29.169Z,1007.51
2018-05-12T09:32:29.164Z,1007.5
2018-05-12T09:33:29.158Z,1007.49
2018-05-12T09:34:29.180Z,1007.51
2018-05-12T09:35:29.144Z,1007.48
2018-05-12T09:36:29.151Z,1007.46
2018-05-12T09:37:29.135Z,1007.43
2018-05-12T09:38:29.125Z,1007.48
2018-05-12T09:39:29.124Z,1007.41
2018-05-12T09:40:29.118Z,1007.43
2018-05-12T09:41:29.109Z,1007.42
2018-05-12T09:42:29.203Z,1007.42
2018-05-12T09:43:29.100Z,1007.39
2018-05-12T09:44:29.091Z,1007.37
2018-05-12T09:45:29.085Z,1007.4
2018-05-12T09:46:29.084Z,1007.4
2018-05-12T09:47:29.077Z,1007.4
2018-05-12T09:48:29.068Z,1007.39
2018-05-12T09:49:29.060Z,1007.37
2018-05-12T09:50:29.055Z,1007.36
2018-05-12T09:51:29.048Z,1007.39
2018-05-12T09:52:29.141Z,1007.34
2018-05-12T09:53:29.038Z,1007.37
2018-05-12T09:54:29.069Z,1007.33
2018-05-12T09:55:29.025Z,1007.3
2018-05-12T09:56:29.020Z,1007.3
2018-05-12T09:57:29.042Z,1007.29
2018-05-12T09:58:29.009Z,1007.33
2018-05-12T09:59:29.108Z,1007.31
2018-05-12T10:00:28.996Z,1007.27
2018-05-12T10:01:28.990Z,1007.3
2018-05-12T10:02:28.990Z,1007.27
2018-05-12T10:03:29.080Z,1007.26
2018-05-12T10:04:28.972Z,1007.3
2018-05-12T10:05:28.965Z,1007.28
2018-05-12T10:06:28.959Z,1007.22
2018-05-12T10:07:28.953Z,1007.2
2018-05-12T10:08:29.152Z,1007.17
2018-05-12T10:09:28.947Z,1007.21
2018-05-12T10:10:28.938Z,1007.17
2018-05-12T10:11:28.934Z,1007.2
2018-05-12T10:12:28.936Z,1007.22
2018-05-12T10:13:28.926Z,1007.24
2018-05-12T10:14:28.918Z,1007.28
2018-05-12T10:15:29.004Z,1007.26
2018-05-12T10:16:28.908Z,1007.18
2018-05-12T10:17:28.902Z,1007.23
2018-05-12T10:18:28.898Z,1007.24
2018-05-12T10:19:28.917Z,1007.29
2018-05-12T10:20:28.889Z,1007.38
2018-05-12T10:21:28.884Z,1007.4
2018-05-12T10:22:28.879Z,1007.42
2018-05-12T10:23:28.881Z,1007.48
2018-05-12T10:24:28.872Z,1007.45
2018-05-12T10:25:28.867Z,1007.51
2018-05-12T10:26:29.067Z,1007.5
2018-05-12T10:27:28.862Z,1007.49
2018-05-12T10:28:28.860Z,1007.49
2018-05-12T10:29:28.860Z,1007.45
2018-05-12T10:30:28.855Z,1007.51
2018-05-12T10:31:28.853Z,1007.45
2018-05-12T10:32:28.851Z,1007.44
2018-05-12T10:33:28.851Z,1007.38
2018-05-12T10:34:28.851Z,1007.34
2018-05-12T10:35:28.848Z,1007.34
2018-05-12T10:36:28.850Z,1007.29
2018-05-12T10:37:28.850Z,1007.35
2018-05-12T10:38:28.849Z,1007.34
2018-05-12T10:39:28.850Z,1007.32
2018-05-12T10:40:28.850Z,1007.29
2018-05-12T10:41:28.856Z,1007.24
2018-05-12T10:42:28.855Z,1007.24
2018-05-12T10:43:28.855Z,1007.21
2018-05-12T10:44:28.856Z,1007.2
2018-05-12T10:45:28.936Z,1007.14
2018-05-12T10:46:28.861Z,1007.13
2018-05-12T10:47:28.861Z,1007.13
2018-05-12T10:48:28.869Z,1007.12
2018-05-12T10:49:28.867Z,1007.1
2018-05-12T10:50:28.874Z,1007.07
2018-05-12T10:51:28.874Z,1007.1
2018-05-12T10:52:28.886Z,1007.07
2018-05-12T10:53:28.878Z,1007.07
2018-05-12T10:54:28.882Z,1007.01
2018-05-12T10:55:28.886Z,1006.97
2018-05-12T10:56:28.891Z,1007
2018-05-12T10:57:28.892Z,1006.96
2018-05-12T10:58:28.896Z,1006.95
2018-05-12T10:59:28.899Z,1006.92
2018-05-12T11:00:28.906Z,1006.91
2018-05-12T11:01:28.925Z,1006.91
2018-05-12T11:02:28.918Z,1006.95
2018-05-12T11:03:28.916Z,1006.94
2018-05-12T11:04:28.917Z,1006.91
2018-05-12T11:05:28.925Z,1006.91
2018-05-12T11:06:28.928Z,1006.87
2018-05-12T11:07:28.937Z,1006.84
2018-05-12T11:08:28.933Z,1006.81
2018-05-12T11:09:28.942Z,1006.84
2018-05-12T11:10:28.947Z,1006.81
2018-05-12T11:11:28.948Z,1006.78
2018-05-12T11:12:28.951Z,1006.79
2018-05-12T11:13:28.958Z,1006.81
2018-05-12T11:14:28.962Z,1006.82
2018-05-12T11:15:28.964Z,1006.81
2018-05-12T11:16:29.032Z,1006.79
2018-05-12T11:17:28.974Z,1006.79
2018-05-12T11:18:28.984Z,1006.79
2018-05-12T11:19:28.985Z,1006.84
2018-05-12T11:20:28.987Z,1006.82
2018-05-12T11:21:28.992Z,1006.82
2018-05-12T11:22:28.999Z,1006.79
2018-05-12T11:23:29.008Z,1006.74
2018-05-12T11:24:29.003Z,1006.8
2018-05-12T11:25:29.009Z,1006.78
2018-05-12T11:26:29.017Z,1006.74
2018-05-12T11:27:29.018Z,1006.7
2018-05-12T11:28:29.024Z,1006.68
2018-05-12T11:29:29.032Z,1006.67
2018-05-12T11:30:29.036Z,1006.68
2018-05-12T11:31:29.040Z,1006.61
2018-05-12T11:32:29.049Z,1006.66
2018-05-12T11:33:29.051Z,1006.6
2018-05-12T11:34:29.055Z,1006.6
2018-05-12T11:35:29.061Z,1006.62
2018-05-12T11:36:29.069Z,1006.62
2018-05-12T11:37:29.070Z,1006.57
2018-05-12T11:38:29.076Z,1006.58
2018-05-12T11:39:29.082Z,1006.55
2018-05-12T11:40:29.089Z,1006.51
2018-05-12T11:41:29.097Z,1006.45
2018-05-12T11:42:29.098Z,1006.44
2018-05-12T11:43:29.103Z,1006.42
2018-05-12T11:44:29.169Z,1006.48
2018-05-12T11:45:29.117Z,1006.49
2018-05-12T11:46:29.126Z,1006.42
2018-05-12T11:47:29.127Z,1006.37
2018-05-12T11:48:29.137Z,1006.42
2018-05-12T11:49:29.137Z,1006.36
2018-05-12T11:50:29.150Z,1006.33
2018-05-12T11:51:29.232Z,1006.34
2018-05-12T11:52:29.155Z,1006.34
2018-05-12T11:53:29.161Z,1006.34
2018-05-12T11:54:29.167Z,1006.31
2018-05-12T11:55:29.173Z,1006.37
2018-05-12T11:56:29.179Z,1006.33
2018-05-12T11:57:29.187Z,1006.32
2018-05-12T11:58:29.260Z,1006.27
2018-05-12T11:59:29.199Z,1006.33
2018-05-12T12:00:29.200Z,1006.35
2018-05-12T12:01:29.205Z,1006.35
2018-05-12T12:02:29.223Z,1006.36
2018-05-12T12:03:29.214Z,1006.31
2018-05-12T12:04:29.221Z,1006.32
2018-05-12T12:05:29.225Z,1006.32
2018-05-12T12:06:29.228Z,1006.31
2018-05-12T12:07:29.238Z,1006.31
2018-05-12T12:08:29.239Z,1006.32